Time;durP1;ratioP1;P1;durP2;ratioP2;P2;SDS_P1;SDS_P2;PMS_P1;PMS_P2;Temp;Humidity;BMP_temperature;BMP_pressure;BME280_temperature;BME280_humidity;BME280_pressure;Samples;Min_cycle;Max_cycle;Signal;HPM_P1;HPM_P2
2021/09/02 00:01:43;;;;;;;16.30;9.20;;;;;;;12.84;93.64;97248.09;114033;1203;30040;-84
2021/09/02 00:04:14;;;;;;;13.00;9.00;;;;;;;12.81;93.61;97244.16;114009;1202;29616;-84
2021/09/02 00:06:45;;;;;;;15.70;9.40;;;;;;;12.79;93.72;97237.92;114014;1204;29730;-84
2021/09/02 00:09:16;;;;;;;14.50;8.50;;;;;;;12.77;93.81;97239.22;114055;1197;35788;-85
2021/09/02 00:11:47;;;;;;;13.30;8.10;;;;;;;12.76;93.74;97237.96;114028;1204;27246;-86
2021/09/02 00:14:18;;;;;;;15.20;9.30;;;;;;;12.74;93.74;97237.39;113994;1206;31460;-85
2021/09/02 00:16:49;;;;;;;12.60;9.40;;;;;;;12.74;93.74;97236.70;113983;1203;27948;-85
2021/09/02 00:19:20;;;;;;;15.70;9.70;;;;;;;12.73;93.83;97238.95;113981;1209;52272;-85
2021/09/02 00:21:51;;;;;;;16.00;10.10;;;;;;;12.72;93.84;97236.08;114116;1201;26283;-85
2021/09/02 00:24:22;;;;;;;13.60;9.00;;;;;;;12.71;93.89;97233.00;114181;1201;27368;-84
2021/09/02 00:26:53;;;;;;;15.50;9.50;;;;;;;12.71;93.93;97234.17;114232;1201;29025;-85
2021/09/02 00:29:24;;;;;;;13.70;9.10;;;;;;;12.71;93.97;97234.27;114200;1201;29202;-84
2021/09/02 00:31:55;;;;;;;12.30;8.80;;;;;;;12.70;93.92;97236.63;114205;1201;28300;-85
2021/09/02 00:34:26;;;;;;;10.60;8.10;;;;;;;12.70;93.98;97243.13;114253;1201;28456;-85
2021/09/02 00:36:57;;;;;;;12.20;8.90;;;;;;;12.70;93.94;97245.41;114207;1201;28322;-84
2021/09/02 00:39:28;;;;;;;12.80;8.80;;;;;;;12.70;94.03;97254.18;114210;1201;27492;-85
2021/09/02 00:41:59;;;;;;;14.10;8.00;;;;;;;12.70;94.00;97255.08;114207;1203;27618;-84
2021/09/02 00:44:37;;;;;;;11.80;8.20;;;;;;;12.71;93.95;97255.29;114204;1209;28144;-85
2021/09/02 00:47:08;;;;;;;12.30;7.70;;;;;;;12.72;93.87;97253.15;114255;1202;25645;-85
2021/09/02 00:49:41;;;;;;;11.00;8.00;;;;;;;12.72;93.83;97253.63;114255;1201;29197;-85
2021/09/02 00:52:15;;;;;;;12.20;7.80;;;;;;;12.73;93.72;97255.17;114263;1201;29374;-85
2021/09/02 00:54:48;;;;;;;10.70;7.30;;;;;;;12.74;93.59;97253.67;114099;1202;30429;-85
2021/09/02 00:57:20;;;;;;;10.10;7.00;;;;;;;12.75;93.52;97254.63;114238;1201;26953;-84
2021/09/02 00:59:53;;;;;;;11.40;7.20;;;;;;;12.74;93.50;97253.88;114204;1201;28048;-84
2021/09/02 01:02:24;;;;;;;10.80;7.00;;;;;;;12.74;93.56;97250.59;114150;1201;28394;-85
2021/09/02 01:04:55;;;;;;;11.30;7.10;;;;;;;12.73;93.38;97255.65;114044;1202;32274;-84
2021/09/02 01:07:28;;;;;;;9.90;6.60;;;;;;;12.73;93.37;97251.49;114094;1198;28505;-85
2021/09/02 01:10:00;;;;;;;10.50;6.60;;;;;;;12.74;93.39;97251.27;114046;1202;32763;-85
2021/09/02 01:12:37;;;;;;;11.60;6.60;;;;;;;12.75;93.16;97252.06;114037;1204;33408;-85
2021/09/02 01:15:11;;;;;;;11.40;6.80;;;;;;;12.75;93.16;97254.56;114099;1204;28761;-85
2021/09/02 01:17:44;;;;;;;11.00;6.50;;;;;;;12.75;93.22;97255.26;114115;1201;34709;-84
2021/09/02 01:20:17;;;;;;;10.50;7.00;;;;;;;12.75;93.17;97258.13;114085;1203;28743;-84
2021/09/02 01:22:51;;;;;;;8.50;6.30;;;;;;;12.75;93.10;97262.02;114158;1201;27596;-85
2021/09/02 01:25:25;;;;;;;11.80;6.90;;;;;;;12.74;93.10;97260.91;114223;1201;28375;-84
2021/09/02 01:28:02;;;;;;;8.40;6.10;;;;;;;12.74;93.11;97261.02;114181;1201;28783;-84
2021/09/02 01:30:33;;;;;;;11.30;6.50;;;;;;;12.72;93.05;97256.98;114192;1203;28276;-85
2021/09/02 01:33:05;;;;;;;10.70;6.90;;;;;;;12.71;93.01;97253.79;114198;1201;43758;-84
2021/09/02 01:35:36;;;;;;;11.10;7.30;;;;;;;12.72;92.99;97258.31;114138;1201;27347;-85
2021/09/02 01:38:09;;;;;;;9.90;6.20;;;;;;;12.73;92.89;97253.41;114142;1201;32300;-85
2021/09/02 01:40:43;;;;;;;11.90;7.10;;;;;;;12.73;92.96;97249.48;114205;1201;28963;-85
2021/09/02 01:43:17;;;;;;;11.20;6.90;;;;;;;12.71;92.95;97246.89;114207;1201;47689;-84
2021/09/02 01:45:48;;;;;;;13.20;7.30;;;;;;;12.71;92.93;97248.52;114146;1201;27313;-86
2021/09/02 01:48:19;;;;;;;11.00;7.90;;;;;;;12.70;92.85;97246.10;114089;1202;26671;-84
2021/09/02 01:50:49;;;;;;;11.30;8.00;;;;;;;12.70;92.85;97243.23;114092;1201;28875;-84
2021/09/02 01:53:21;;;;;;;10.80;6.70;;;;;;;12.69;92.76;97242.75;114158;1202;26115;-84
2021/09/02 01:55:52;;;;;;;12.90;8.60;;;;;;;12.67;92.84;97238.08;114189;1201;28228;-84
2021/09/02 01:58:23;;;;;;;12.80;8.10;;;;;;;12.67;92.80;97240.20;114185;1201;28735;-85
2021/09/02 02:00:54;;;;;;;12.80;7.60;;;;;;;12.67;92.68;97241.70;114050;1201;26938;-85
2021/09/02 02:03:25;;;;;;;15.60;9.00;;;;;;;12.68;92.71;97237.23;114107;1202;27669;-85
2021/09/02 02:05:56;;;;;;;12.50;7.60;;;;;;;12.68;92.68;97239.83;114151;1201;31460;-85
2021/09/02 02:08:27;;;;;;;12.50;9.40;;;;;;;12.68;92.56;97236.16;114185;1204;27972;-84
2021/09/02 02:10:57;;;;;;;12.30;7.90;;;;;;;12.68;92.64;97238.83;114183;1201;28243;-85
2021/09/02 02:13:28;;;;;;;14.80;9.60;;;;;;;12.68;92.61;97238.77;114061;1203;33689;-85
2021/09/02 02:15:59;;;;;;;13.80;8.60;;;;;;;12.67;92.65;97237.65;114062;1201;27769;-85
2021/09/02 02:18:30;;;;;;;16.60;8.90;;;;;;;12.66;92.53;97238.60;114079;1203;28491;-85
2021/09/02 02:21:01;;;;;;;14.30;8.50;;;;;;;12.66;92.45;97238.39;114083;1201;26840;-85
2021/09/02 02:23:32;;;;;;;13.60;8.60;;;;;;;12.65;92.47;97238.08;114085;1201;27541;-85
2021/09/02 02:26:02;;;;;;;14.60;8.60;;;;;;;12.66;92.44;97233.60;114040;1202;28626;-85
2021/09/02 02:28:33;;;;;;;14.00;8.60;;;;;;;12.65;92.27;97234.13;114109;1201;27142;-85
2021/09/02 02:31:04;;;;;;;16.80;8.80;;;;;;;12.63;92.37;97237.08;114096;1203;45577;-85
2021/09/02 02:33:35;;;;;;;13.60;9.00;;;;;;;12.62;92.37;97229.17;114094;1202;27950;-85
2021/09/02 02:36:07;;;;;;;14.40;8.70;;;;;;;12.62;92.39;97228.25;114063;1203;28727;-84
2021/09/02 02:38:37;;;;;;;13.50;9.00;;;;;;;12.63;92.42;97229.42;114082;1202;28137;-85
2021/09/02 02:41:08;;;;;;;14.00;8.70;;;;;;;12.64;92.35;97226.38;114154;1204;27034;-85
2021/09/02 02:43:39;;;;;;;14.30;9.30;;;;;;;12.65;92.41;97227.48;114109;1202;26622;-84
2021/09/02 02:46:10;;;;;;;15.70;9.00;;;;;;;12.66;92.37;97222.91;114134;1202;29692;-84
2021/09/02 02:48:41;;;;;;;12.40;8.70;;;;;;;12.65;92.38;97224.02;114151;1201;31982;-85
2021/09/02 02:51:13;;;;;;;12.10;8.60;;;;;;;12.65;92.38;97225.14;114133;1202;27794;-85
2021/09/02 02:53:44;;;;;;;15.40;9.40;;;;;;;12.66;92.37;97226.62;114083;1203;27680;-84
2021/09/02 02:56:15;;;;;;;11.30;7.90;;;;;;;12.66;92.41;97227.32;114084;1203;28965;-84
2021/09/02 02:58:48;;;;;;;14.40;8.60;;;;;;;12.66;92.41;97228.45;114060;1198;27960;-84
2021/09/02 03:01:19;;;;;;;14.20;8.50;;;;;;;12.66;92.34;97233.55;114108;1201;25916;-85
2021/09/02 03:03:50;;;;;;;11.10;7.80;;;;;;;12.65;92.41;97231.69;114100;1203;29839;-85
2021/09/02 03:06:20;;;;;;;13.00;8.10;;;;;;;12.65;92.47;97235.25;114130;1203;28990;-85
2021/09/02 03:08:51;;;;;;;13.70;8.00;;;;;;;12.65;92.49;97231.05;114054;1202;28775;-85
2021/09/02 03:11:22;;;;;;;13.30;8.50;;;;;;;12.63;92.41;97228.88;114098;1207;25211;-85
2021/09/02 03:13:53;;;;;;;12.50;8.40;;;;;;;12.62;92.40;97229.80;114115;1209;28311;-85
2021/09/02 03:16:24;;;;;;;14.30;7.70;;;;;;;12.61;92.44;97231.56;114121;1209;28095;-85
2021/09/02 03:18:55;;;;;;;14.30;8.50;;;;;;;12.61;92.57;97231.84;114117;1203;32181;-84
2021/09/02 03:21:26;;;;;;;15.20;9.20;;;;;;;12.58;92.54;97235.52;114136;1201;26558;-85
2021/09/02 03:23:57;;;;;;;11.90;8.30;;;;;;;12.57;92.48;97237.19;114099;1202;27758;-84
2021/09/02 03:26:28;;;;;;;13.90;8.70;;;;;;;12.57;92.53;97242.50;114142;1202;26688;-84
2021/09/02 03:28:59;;;;;;;13.50;8.50;;;;;;;12.56;92.53;97246.71;114123;1202;29178;-84
2021/09/02 03:31:29;;;;;;;12.10;7.20;;;;;;;12.55;92.58;97250.13;114147;1201;26095;-84
2021/09/02 03:34:00;;;;;;;14.60;7.70;;;;;;;12.54;92.62;97248.96;114111;1202;26829;-85
2021/09/02 03:36:31;;;;;;;13.10;8.70;;;;;;;12.52;92.71;97242.52;114027;1203;27242;-85
2021/09/02 03:39:03;;;;;;;13.20;8.70;;;;;;;12.50;92.64;97238.85;114099;1203;26473;-85
2021/09/02 03:41:33;;;;;;;13.70;8.60;;;;;;;12.48;92.69;97232.38;114117;1202;29678;-85
2021/09/02 03:44:04;;;;;;;13.80;9.50;;;;;;;12.44;92.80;97232.41;114135;1202;27170;-84
2021/09/02 03:46:35;;;;;;;16.40;10.70;;;;;;;12.39;93.00;97234.93;114112;1202;29875;-85
2021/09/02 03:49:07;;;;;;;14.70;10.40;;;;;;;12.37;93.15;97245.84;114118;1195;27755;-84
2021/09/02 03:51:37;;;;;;;17.40;10.00;;;;;;;12.35;93.39;97244.89;114172;1203;28027;-84
2021/09/02 03:54:08;;;;;;;14.30;10.50;;;;;;;12.34;93.53;97254.84;114107;1203;29619;-84
2021/09/02 03:56:39;;;;;;;16.40;11.70;;;;;;;12.34;93.49;97251.48;114237;1201;28322;-84
2021/09/02 03:59:10;;;;;;;14.70;9.30;;;;;;;12.34;93.45;97249.90;114135;1203;30020;-85
2021/09/02 04:01:41;;;;;;;17.40;12.00;;;;;;;12.33;93.61;97255.16;114180;1201;26137;-85
2021/09/02 04:04:12;;;;;;;14.70;10.80;;;;;;;12.32;93.72;97259.95;114187;1201;31376;-86
2021/09/02 04:06:43;;;;;;;16.70;9.70;;;;;;;12.33;93.76;97265.06;114157;1209;26675;-85
2021/09/02 04:09:14;;;;;;;15.00;10.10;;;;;;;12.32;93.82;97265.70;114100;1203;67953;-84
2021/09/02 04:11:45;;;;;;;19.80;13.40;;;;;;;12.32;93.92;97270.11;114103;1203;29448;-84
2021/09/02 04:14:16;;;;;;;14.70;11.10;;;;;;;12.32;93.93;97274.52;114097;1203;33177;-84
2021/09/02 04:16:47;;;;;;;16.70;10.70;;;;;;;12.32;93.95;97275.16;114116;1202;27757;-86
2021/09/02 04:19:18;;;;;;;19.60;12.20;;;;;;;12.32;93.88;97272.35;114104;1203;29331;-85
2021/09/02 04:21:49;;;;;;;16.00;11.50;;;;;;;12.33;93.96;97271.65;114108;1202;27403;-85
2021/09/02 04:24:20;;;;;;;17.80;13.20;;;;;;;12.35;94.02;97271.21;114110;1203;25920;-86
2021/09/02 04:26:51;;;;;;;18.60;12.60;;;;;;;12.34;94.08;97274.63;114137;1202;30584;-85
2021/09/02 04:29:22;;;;;;;17.20;13.00;;;;;;;12.33;93.95;97275.59;114032;1209;71174;-84
2021/09/02 04:31:53;;;;;;;16.90;12.40;;;;;;;12.35;94.11;97278.88;114138;1203;28288;-86
2021/09/02 04:34:24;;;;;;;17.70;12.30;;;;;;;12.37;94.20;97272.59;114080;1202;27720;-84
2021/09/02 04:36:55;;;;;;;17.30;11.70;;;;;;;12.36;94.15;97269.45;114143;1209;27973;-85
2021/09/02 04:39:25;;;;;;;15.70;11.40;;;;;;;12.36;94.16;97273.07;114122;1202;28047;-84
2021/09/02 04:41:56;;;;;;;15.70;10.90;;;;;;;12.36;94.23;97274.77;114121;1202;33271;-85
2021/09/02 04:44:27;;;;;;;17.60;12.40;;;;;;;12.35;94.22;97284.30;114129;1203;37635;-86
2021/09/02 04:46:58;;;;;;;16.00;11.90;;;;;;;12.35;94.29;97288.61;114154;1202;31511;-85
2021/09/02 04:49:29;;;;;;;19.90;13.20;;;;;;;12.35;94.37;97288.23;114142;1209;30776;-86
2021/09/02 04:52:00;;;;;;;17.80;13.40;;;;;;;12.35;94.32;97291.80;114144;1202;27185;-84
2021/09/02 04:54:31;;;;;;;15.60;11.80;;;;;;;12.35;94.43;97288.98;114145;1203;28043;-85
2021/09/02 04:57:03;;;;;;;16.80;12.60;;;;;;;12.32;94.43;97290.86;114157;1198;25482;-84
2021/09/02 04:59:34;;;;;;;19.00;12.70;;;;;;;12.33;94.37;97294.04;114008;1203;32121;-85
2021/09/02 05:02:05;;;;;;;17.80;11.80;;;;;;;12.41;94.62;97301.09;114147;1203;44075;-86
2021/09/02 05:04:36;;;;;;;16.10;12.30;;;;;;;12.47;94.59;97305.46;114169;1209;27144;-85
2021/09/02 05:07:08;;;;;;;18.70;13.30;;;;;;;12.45;94.45;97308.67;114173;1202;28153;-85
2021/09/02 05:09:38;;;;;;;17.10;13.60;;;;;;;12.43;94.39;97307.98;114206;1202;29070;-85
2021/09/02 05:12:11;;;;;;;15.80;12.30;;;;;;;12.43;94.52;97306.50;114190;1201;28462;-85
2021/09/02 05:14:42;;;;;;;20.40;14.00;;;;;;;12.45;94.59;97304.41;114263;1203;28967;-85
2021/09/02 05:17:13;;;;;;;17.30;12.40;;;;;;;12.58;94.70;97308.83;114145;1202;29626;-83
2021/09/02 05:19:44;;;;;;;16.10;12.50;;;;;;;12.72;94.73;97312.05;114119;1198;39834;-84
2021/09/02 05:22:14;;;;;;;16.90;12.70;;;;;;;12.72;94.35;97311.63;114163;1203;28799;-85
2021/09/02 05:24:46;;;;;;;18.30;13.60;;;;;;;12.69;94.14;97313.78;114127;1203;27957;-85
2021/09/02 05:27:17;;;;;;;17.90;13.90;;;;;;;12.70;94.39;97313.41;114104;1203;29861;-84
2021/09/02 05:29:48;;;;;;;20.50;13.70;;;;;;;12.70;94.23;97318.35;114116;1202;27052;-85
2021/09/02 05:32:19;;;;;;;18.40;14.00;;;;;;;12.63;94.07;97320.60;114152;1203;29391;-84
2021/09/02 05:34:51;;;;;;;16.90;12.60;;;;;;;12.58;93.93;97315.53;114141;1201;25339;-84
2021/09/02 05:37:22;;;;;;;15.80;12.90;;;;;;;12.57;94.01;97319.69;114110;1202;27479;-85
2021/09/02 05:39:53;;;;;;;19.10;12.30;;;;;;;12.58;94.21;97320.16;114155;1203;28971;-85
2021/09/02 05:42:24;;;;;;;19.20;13.20;;;;;;;12.65;94.59;97317.14;114079;1202;27574;-85
2021/09/02 05:44:55;;;;;;;16.20;12.20;;;;;;;13.01;95.35;97316.56;114135;1203;29277;-85
2021/09/02 05:47:27;;;;;;;17.50;11.80;;;;;;;13.29;94.94;97317.19;114140;1203;29367;-85
2021/09/02 05:49:58;;;;;;;15.60;11.80;;;;;;;13.65;94.45;97322.77;114147;1203;27525;-85
2021/09/02 05:52:30;;;;;;;17.30;11.40;;;;;;;14.36;94.83;97322.73;114170;1204;30247;-84
2021/09/02 05:55:01;;;;;;;16.50;12.10;;;;;;;14.77;91.40;97321.58;114092;1203;25794;-85
2021/09/02 05:57:32;;;;;;;16.70;12.60;;;;;;;14.42;89.97;97327.64;114172;1207;29219;-85
2021/09/02 06:00:03;;;;;;;17.30;11.60;;;;;;;14.04;89.36;97328.38;114139;1203;27060;-84
2021/09/02 06:02:34;;;;;;;15.30;11.20;;;;;;;13.74;89.83;97331.39;114172;1202;31576;-85
2021/09/02 06:05:06;;;;;;;14.60;10.60;;;;;;;13.62;90.48;97333.62;114112;1203;29208;-85
2021/09/02 06:07:37;;;;;;;16.00;12.20;;;;;;;13.53;90.79;97337.27;114119;1203;26678;-85
2021/09/02 06:10:10;;;;;;;16.20;12.60;;;;;;;13.38;90.77;97335.95;114097;1202;37508;-85
2021/09/02 06:12:41;;;;;;;14.40;12.10;;;;;;;13.25;91.02;97332.36;114192;1203;31333;-85
2021/09/02 06:15:13;;;;;;;15.80;12.60;;;;;;;13.75;92.12;97336.80;114198;1198;39488;-85
2021/09/02 06:17:44;;;;;;;14.50;11.90;;;;;;;13.91;91.02;97339.42;114002;1203;43193;-85
2021/09/02 06:20:16;;;;;;;18.90;12.70;;;;;;;13.69;90.02;97338.35;114140;1209;30497;-85
2021/09/02 06:22:47;;;;;;;14.80;11.90;;;;;;;13.57;90.51;97341.39;114171;1204;28922;-85
2021/09/02 06:25:17;;;;;;;15.80;12.60;;;;;;;13.54;90.54;97343.29;114067;1203;27600;-85
2021/09/02 06:27:48;;;;;;;16.10;11.60;;;;;;;13.54;90.41;97342.54;114078;1203;27456;-85
2021/09/02 06:30:19;;;;;;;16.10;11.70;;;;;;;13.50;90.52;97348.52;114086;1203;31957;-85
2021/09/02 06:32:50;;;;;;;15.80;11.50;;;;;;;13.45;90.52;97348.72;114102;1202;27242;-85
2021/09/02 06:35:21;;;;;;;15.30;12.80;;;;;;;13.41;90.74;97351.10;114168;1203;29722;-84
2021/09/02 06:37:52;;;;;;;19.50;12.50;;;;;;;13.42;90.99;97349.81;114114;1194;33033;-85
2021/09/02 06:40:23;;;;;;;19.90;13.80;;;;;;;13.58;91.16;97351.55;114105;1203;25858;-86
2021/09/02 06:42:54;;;;;;;15.80;12.20;;;;;;;13.63;91.40;97350.55;114099;1203;30135;-85
2021/09/02 06:45:25;;;;;;;16.20;12.70;;;;;;;13.81;91.72;97350.66;114126;1203;28478;-85
2021/09/02 06:47:56;;;;;;;16.10;13.10;;;;;;;13.88;90.71;97356.14;114091;1202;36506;-86
2021/09/02 06:50:27;;;;;;;15.80;12.80;;;;;;;13.84;90.35;97359.81;114123;1202;29303;-85
2021/09/02 06:52:58;;;;;;;17.00;12.30;;;;;;;13.83;90.37;97366.22;114078;1203;29399;-85
2021/09/02 06:55:29;;;;;;;18.20;13.40;;;;;;;13.82;90.17;97369.96;114100;1203;27986;-85
2021/09/02 06:58:00;;;;;;;15.80;12.70;;;;;;;13.93;90.73;97373.63;114158;1202;27674;-85
2021/09/02 07:00:31;;;;;;;18.30;12.90;;;;;;;14.21;90.28;97377.90;114118;1203;76297;-85
2021/09/02 07:03:02;;;;;;;14.60;11.70;;;;;;;14.47;90.30;97378.29;114176;1201;85024;-84
2021/09/02 07:05:33;;;;;;;16.40;12.40;;;;;;;14.53;88.87;97376.20;114163;1201;28199;-85
2021/09/02 07:08:04;;;;;;;15.10;11.60;;;;;;;14.36;88.23;97374.65;114139;1201;29981;-86
2021/09/02 07:10:35;;;;;;;15.70;11.40;;;;;;;14.41;88.73;97382.77;114109;1203;32568;-86
2021/09/02 07:13:06;;;;;;;15.50;10.50;;;;;;;14.57;88.45;97381.18;114091;1203;28611;-85
2021/09/02 07:15:37;;;;;;;13.10;9.10;;;;;;;15.12;89.11;97380.80;114149;1201;28913;-85
2021/09/02 07:18:08;;;;;;;18.40;9.30;;;;;;;15.66;88.42;97380.30;114138;1203;28555;-85
2021/09/02 07:20:39;;;;;;;11.50;8.80;;;;;;;15.78;86.49;97384.12;114223;1204;28152;-85
2021/09/02 07:23:10;;;;;;;14.50;9.00;;;;;;;15.80;85.46;97380.13;114223;1198;25909;-85
2021/09/02 07:25:41;;;;;;;11.60;8.50;;;;;;;15.71;85.13;97381.28;114257;1203;28238;-85
2021/09/02 07:28:12;;;;;;;11.30;8.90;;;;;;;15.65;84.28;97385.06;114189;1201;28415;-84
2021/09/02 07:30:44;;;;;;;11.90;8.00;;;;;;;15.54;84.67;97394.68;114165;1202;28193;-83
2021/09/02 07:33:15;;;;;;;8.90;6.50;;;;;;;15.54;84.10;97396.39;114175;1204;30943;-84
2021/09/02 07:35:46;;;;;;;12.30;7.20;;;;;;;15.37;83.51;97393.27;114088;1203;28862;-85
2021/09/02 07:38:17;;;;;;;9.80;7.40;;;;;;;16.17;84.10;97395.75;114172;1202;28199;-85
2021/09/02 07:40:48;;;;;;;10.20;6.80;;;;;;;16.29;80.85;97402.91;114111;1201;30909;-84
2021/09/02 07:43:19;;;;;;;9.20;6.90;;;;;;;16.07;81.40;97403.86;114123;1203;28945;-85
2021/09/02 07:45:50;;;;;;;9.70;6.80;;;;;;;16.26;81.94;97407.16;114156;1202;28463;-85
2021/09/02 07:48:20;;;;;;;9.80;6.50;;;;;;;16.93;82.83;97409.77;114127;1203;26688;-85
2021/09/02 07:50:51;;;;;;;9.80;6.10;;;;;;;18.13;81.59;97402.50;114099;1202;30609;-85
2021/09/02 07:53:22;;;;;;;9.80;5.10;;;;;;;20.41;81.83;97397.14;114148;1202;27951;-84
2021/09/02 07:55:53;;;;;;;7.20;4.90;;;;;;;22.12;78.34;97392.45;114100;1209;68961;-85
2021/09/02 07:58:24;;;;;;;7.90;5.00;;;;;;;22.17;74.50;97395.64;114094;1204;34942;-86
2021/09/02 08:00:55;;;;;;;7.30;4.70;;;;;;;22.85;74.16;97396.62;114169;1207;30274;-85
2021/09/02 08:03:26;;;;;;;8.80;4.60;;;;;;;22.32;67.51;97401.89;114119;1194;40410;-85
2021/09/02 08:05:57;;;;;;;6.50;4.40;;;;;;;20.67;66.99;97406.23;114175;1204;29952;-85
2021/09/02 08:08:28;;;;;;;8.10;4.30;;;;;;;19.83;69.15;97411.74;114107;1209;24454;-85
2021/09/02 08:10:59;;;;;;;6.70;4.40;;;;;;;19.50;68.79;97415.30;114131;1203;25736;-85
2021/09/02 08:13:30;;;;;;;7.90;4.80;;;;;;;18.98;68.91;97417.97;114134;1204;33438;-85
2021/09/02 08:16:01;;;;;;;7.50;4.50;;;;;;;18.65;69.31;97414.09;114126;1202;29160;-85
2021/09/02 08:18:32;;;;;;;7.10;4.90;;;;;;;18.03;67.47;97419.98;114138;1204;29774;-85
2021/09/02 08:21:03;;;;;;;7.80;5.00;;;;;;;17.52;68.20;97425.92;114166;1202;33904;-85
2021/09/02 08:23:34;;;;;;;7.40;4.10;;;;;;;17.41;70.21;97421.28;114149;1209;29034;-85
2021/09/02 08:26:05;;;;;;;7.30;5.30;;;;;;;17.63;70.67;97423.68;114166;1202;28602;-85
2021/09/02 08:28:36;;;;;;;7.40;4.90;;;;;;;17.52;69.22;97422.23;114119;1202;31950;-85
2021/09/02 08:31:07;;;;;;;9.50;5.40;;;;;;;17.42;69.79;97422.95;114161;1202;29072;-85
2021/09/02 08:33:38;;;;;;;7.90;4.60;;;;;;;17.41;70.37;97424.86;114139;1204;27825;-85
2021/09/02 08:36:09;;;;;;;7.20;4.70;;;;;;;17.44;70.53;97421.48;114110;1202;33652;-85
2021/09/02 08:38:41;;;;;;;6.80;4.90;;;;;;;17.52;70.29;97422.27;114186;1202;76907;-85
2021/09/02 08:41:12;;;;;;;7.30;4.60;;;;;;;17.50;69.56;97425.05;114199;1203;38608;-85
2021/09/02 08:43:45;;;;;;;7.50;5.00;;;;;;;17.33;68.77;97427.80;114160;1200;28210;-84
2021/09/02 08:46:17;;;;;;;8.20;5.00;;;;;;;17.28;69.41;97426.51;114150;1198;29043;-85
2021/09/02 08:48:49;;;;;;;7.00;4.70;;;;;;;17.28;68.81;97428.15;114060;1202;29519;-85
2021/09/02 08:51:20;;;;;;;5.90;4.40;;;;;;;17.35;69.46;97427.59;114112;1209;30863;-85
2021/09/02 08:53:53;;;;;;;6.90;4.20;;;;;;;17.46;69.20;97430.38;114115;1201;28263;-84
2021/09/02 08:56:25;;;;;;;8.40;4.70;;;;;;;17.52;68.88;97424.09;114115;1205;30229;-85
2021/09/02 08:58:56;;;;;;;7.50;5.00;;;;;;;17.56;68.93;97427.39;114135;1202;32310;-84
2021/09/02 09:01:27;;;;;;;6.80;5.00;;;;;;;17.59;68.32;97422.48;114163;1205;28560;-85
2021/09/02 09:03:58;;;;;;;6.20;4.80;;;;;;;17.63;68.69;97428.83;114132;1204;29858;-85
2021/09/02 09:06:30;;;;;;;8.80;5.30;;;;;;;17.80;68.67;97432.91;114167;1204;34563;-85
2021/09/02 09:09:05;;;;;;;7.00;5.10;;;;;;;18.06;69.88;97429.50;114081;1198;29954;-85
2021/09/02 09:11:36;;;;;;;9.80;5.20;;;;;;;18.37;68.48;97432.14;114121;1204;27075;-85
2021/09/02 09:14:12;;;;;;;7.50;5.00;;;;;;;18.23;65.91;97432.88;114109;1201;29438;-85
2021/09/02 09:16:51;;;;;;;7.20;4.90;;;;;;;17.53;64.84;97440.75;114175;1204;27887;-85
2021/09/02 09:19:49;;;;;;;8.40;5.30;;;;;;;17.14;65.11;97437.79;114146;1204;27490;-85
2021/09/02 09:22:23;;;;;;;9.00;5.70;;;;;;;16.97;65.87;97433.30;114118;1204;29062;-84
2021/09/02 09:24:56;;;;;;;6.90;5.00;;;;;;;17.01;66.90;97441.59;114060;1203;28980;-85
2021/09/02 09:27:36;;;;;;;8.10;5.00;;;;;;;17.01;65.92;97443.08;114091;1204;38361;-85
2021/09/02 09:30:18;;;;;;;9.20;5.70;;;;;;;16.96;65.98;97442.39;114111;1204;35517;-85
2021/09/02 09:32:52;;;;;;;6.60;4.80;;;;;;;16.85;65.88;97441.80;114119;1202;31843;-85
2021/09/02 09:35:25;;;;;;;7.60;5.10;;;;;;;16.93;66.64;97435.00;114086;1194;28146;-84
2021/09/02 09:38:08;;;;;;;6.50;4.70;;;;;;;16.98;66.52;97430.44;114155;1201;33225;-85
2021/09/02 09:40:41;;;;;;;6.80;4.60;;;;;;;16.84;65.89;97441.01;114122;1203;27538;-85
2021/09/02 09:43:14;;;;;;;6.50;4.80;;;;;;;16.89;67.60;97435.82;114190;1202;27660;-84
2021/09/02 09:45:51;;;;;;;8.10;5.50;;;;;;;17.09;67.09;97433.02;114118;1202;29676;-84
2021/09/02 09:48:35;;;;;;;8.80;5.00;;;;;;;17.11;66.77;97441.70;114097;1203;29621;-85
2021/09/02 09:51:23;;;;;;;8.50;5.10;;;;;;;17.18;66.50;97440.42;114164;1202;29341;-84
2021/09/02 09:53:55;;;;;;;7.60;5.50;;;;;;;17.17;65.72;97441.26;114147;1202;26194;-84
2021/09/02 09:56:27;;;;;;;7.20;4.80;;;;;;;17.12;65.61;97445.48;114116;1204;27960;-84
2021/09/02 09:58:58;;;;;;;8.40;5.60;;;;;;;17.24;66.96;97446.91;114071;1205;29746;-85
2021/09/02 10:01:31;;;;;;;7.40;5.40;;;;;;;17.38;66.36;97447.52;114078;1204;32868;-84
2021/09/02 10:04:02;;;;;;;8.00;5.10;;;;;;;17.47;66.81;97447.59;114112;1204;27935;-85
2021/09/02 10:06:36;;;;;;;7.70;5.60;;;;;;;17.62;66.27;97453.86;114126;1202;29059;-85
2021/09/02 10:09:07;;;;;;;9.00;5.90;;;;;;;17.61;66.02;97449.91;114114;1204;29966;-84
2021/09/02 10:11:38;;;;;;;8.90;5.90;;;;;;;17.68;66.98;97450.77;114105;1206;31223;-84
2021/09/02 10:14:09;;;;;;;6.70;4.80;;;;;;;17.65;64.85;97450.36;114121;1202;26319;-84
2021/09/02 10:16:41;;;;;;;6.30;4.50;;;;;;;17.33;63.52;97451.26;114158;1201;29416;-84
2021/09/02 10:19:12;;;;;;;9.10;5.90;;;;;;;17.09;63.69;97450.09;114194;1201;33264;-85
2021/09/02 10:21:43;;;;;;;7.30;5.20;;;;;;;16.98;64.50;97454.45;114182;1202;35048;-85
2021/09/02 10:24:36;;;;;;;8.80;5.40;;;;;;;17.04;64.74;97452.63;114008;1203;71791;-83
2021/09/02 10:27:40;;;;;;;7.40;5.00;;;;;;;17.05;63.63;97452.02;114126;1202;28830;-84
2021/09/02 10:30:26;;;;;;;7.40;4.90;;;;;;;16.97;63.97;97458.25;114182;1205;27683;-85
2021/09/02 10:32:58;;;;;;;8.20;5.30;;;;;;;16.94;64.25;97453.09;114110;1203;28446;-85
2021/09/02 10:35:39;;;;;;;7.30;5.60;;;;;;;16.98;66.13;97456.54;114027;1204;87928;-84
2021/09/02 10:38:10;;;;;;;8.70;5.30;;;;;;;17.12;65.92;97452.55;114211;1202;28768;-84
2021/09/02 10:40:54;;;;;;;8.50;5.00;;;;;;;17.04;64.88;97450.80;114171;1205;25665;-85
2021/09/02 10:43:52;;;;;;;7.20;4.70;;;;;;;16.89;64.64;97453.39;114077;1204;27158;-84
2021/09/02 10:46:31;;;;;;;7.60;5.00;;;;;;;16.97;65.52;97449.88;114079;1205;29096;-84
2021/09/02 10:49:23;;;;;;;7.90;4.90;;;;;;;17.05;65.08;97451.89;114166;1205;28777;-84
2021/09/02 10:51:57;;;;;;;6.30;4.80;;;;;;;17.03;65.41;97448.78;114174;1206;26058;-85
2021/09/02 10:54:33;;;;;;;5.50;3.90;;;;;;;16.85;63.87;97452.45;114077;1206;33262;-84
2021/09/02 10:57:13;;;;;;;6.80;4.10;;;;;;;16.95;64.47;97454.20;114104;1206;37268;-85
2021/09/02 10:59:50;;;;;;;5.80;3.90;;;;;;;17.33;63.61;97448.63;114044;1208;32727;-84
2021/09/02 11:02:44;;;;;;;5.00;3.40;;;;;;;17.64;64.79;97443.19;114038;1201;29289;-85
2021/09/02 11:05:16;;;;;;;5.60;3.80;;;;;;;18.02;63.83;97444.09;114056;1206;26866;-84
2021/09/02 11:07:50;;;;;;;5.70;4.00;;;;;;;18.19;64.10;97449.58;114114;1204;30366;-84
2021/09/02 11:10:23;;;;;;;5.00;3.50;;;;;;;18.21;63.18;97455.73;114165;1206;29386;-85
2021/09/02 11:13:03;;;;;;;5.90;3.90;;;;;;;18.03;62.07;97458.12;114074;1205;41083;-85
2021/09/02 11:15:35;;;;;;;4.00;3.00;;;;;;;17.66;61.92;97466.58;114061;1206;30596;-85
2021/09/02 11:18:07;;;;;;;5.70;3.90;;;;;;;17.35;61.65;97463.75;114102;1201;33485;-84
2021/09/02 11:20:43;;;;;;;6.50;3.70;;;;;;;17.07;62.28;97466.91;114083;1201;36418;-84
2021/09/02 11:23:23;;;;;;;4.90;3.10;;;;;;;16.90;63.37;97464.84;114116;1204;30761;-84
2021/09/02 11:25:55;;;;;;;5.20;3.60;;;;;;;16.91;63.45;97463.49;114070;1206;28604;-84
2021/09/02 11:28:26;;;;;;;5.50;3.50;;;;;;;16.86;63.43;97461.21;114109;1206;26958;-85
2021/09/02 11:30:57;;;;;;;5.30;4.10;;;;;;;16.80;62.71;97465.00;114087;1200;26297;-83
2021/09/02 11:33:28;;;;;;;4.20;3.40;;;;;;;16.71;62.68;97469.01;114085;1203;29406;-83
2021/09/02 11:36:00;;;;;;;6.20;3.60;;;;;;;16.69;63.04;97473.65;114043;1203;27348;-85
2021/09/02 11:38:31;;;;;;;5.50;3.90;;;;;;;16.70;63.19;97476.73;114088;1205;32854;-84
2021/09/02 11:41:18;;;;;;;6.30;4.00;;;;;;;16.72;64.04;97481.89;114111;1206;40865;-84